Terminal Aerodrome Forecast
Issued by NWS

Home | Current Version | Previous Version | Text Only | Print | Product List | Glossary On
Versions: 1 2 3 4 5 6 7 8 9 10 11 12 13 14 15 16 17 18 19 20 21 22 23
000
FTUS41 KBTV 291720
TAFSLK
TAF
KSLK 291720Z 2918/3018 22010KT P6SM SKC
     FM300000 20007KT P6SM BKN150 WS020/22040KT
     FM300800 20014G20KT 3SM -SHSN BR OVC035
     FM301200 23018G29KT 3SM -SHSN BR OVC015=

USA.gov is the U.S. government's official web portal to all federal, state and local government web resources and services.